sensor_id;sensor_type;location;lat;lon;timestamp;P1;durP1;ratioP1;P2;durP2;ratioP2
20431;SDS011;10375;49.136;10.366;2023-08-06T00:02:26;4.85;;;1.60;;
20431;SDS011;10375;49.136;10.366;2023-08-06T00:04:53;588.42;;;147.05;;
20431;SDS011;10375;49.136;10.366;2023-08-06T00:07:21;88.63;;;83.43;;
20431;SDS011;10375;49.136;10.366;2023-08-06T00:09:48;64.85;;;61.20;;
20431;SDS011;10375;49.136;10.366;2023-08-06T00:12:15;64.93;;;61.42;;
20431;SDS011;10375;49.136;10.366;2023-08-06T00:14:42;76.18;;;71.88;;
20431;SDS011;10375;49.136;10.366;2023-08-06T00:17:10;67.18;;;63.13;;
20431;SDS011;10375;49.136;10.366;2023-08-06T00:19:37;221.25;;;78.05;;
20431;SDS011;10375;49.136;10.366;2023-08-06T00:22:05;85.93;;;81.15;;
20431;SDS011;10375;49.136;10.366;2023-08-06T00:24:32;82.95;;;78.47;;
20431;SDS011;10375;49.136;10.366;2023-08-06T00:27:00;85.25;;;80.40;;
20431;SDS011;10375;49.136;10.366;2023-08-06T00:29:28;86.43;;;80.68;;
20431;SDS011;10375;49.136;10.366;2023-08-06T00:31:55;96.82;;;91.50;;
20431;SDS011;10375;49.136;10.366;2023-08-06T00:34:22;85.18;;;80.28;;
20431;SDS011;10375;49.136;10.366;2023-08-06T00:36:50;81.75;;;77.15;;
20431;SDS011;10375;49.136;10.366;2023-08-06T00:39:17;85.85;;;81.13;;
20431;SDS011;10375;49.136;10.366;2023-08-06T00:41:44;76.57;;;72.45;;
20431;SDS011;10375;49.136;10.366;2023-08-06T00:44:14;40.78;;;38.40;;
20431;SDS011;10375;49.136;10.366;2023-08-06T00:46:41;46.72;;;44.22;;
20431;SDS011;10375;49.136;10.366;2023-08-06T00:49:08;41.72;;;39.50;;
20431;SDS011;10375;49.136;10.366;2023-08-06T00:51:36;44.88;;;42.47;;
20431;SDS011;10375;49.136;10.366;2023-08-06T00:54:03;46.13;;;43.30;;
20431;SDS011;10375;49.136;10.366;2023-08-06T00:56:33;50.75;;;48.00;;
20431;SDS011;10375;49.136;10.366;2023-08-06T00:59:04;46.70;;;44.17;;
20431;SDS011;10375;49.136;10.366;2023-08-06T01:01:32;44.13;;;41.13;;
20431;SDS011;10375;49.136;10.366;2023-08-06T01:03:59;47.83;;;45.33;;
20431;SDS011;10375;49.136;10.366;2023-08-06T01:06:35;75.05;;;70.97;;
20431;SDS011;10375;49.136;10.366;2023-08-06T01:09:31;53.90;;;50.90;;
20431;SDS011;10375;49.136;10.366;2023-08-06T01:12:41;49.75;;;46.83;;
20431;SDS011;10375;49.136;10.366;2023-08-06T01:17:19;66.90;;;63.13;;
20431;SDS011;10375;49.136;10.366;2023-08-06T01:19:47;69.22;;;65.60;;
20431;SDS011;10375;49.136;10.366;2023-08-06T01:22:14;62.80;;;59.50;;
20431;SDS011;10375;49.136;10.366;2023-08-06T01:24:41;69.53;;;64.65;;
20431;SDS011;10375;49.136;10.366;2023-08-06T01:27:24;66.30;;;62.78;;
20431;SDS011;10375;49.136;10.366;2023-08-06T01:30:12;66.65;;;63.15;;
20431;SDS011;10375;49.136;10.366;2023-08-06T01:32:42;65.95;;;62.53;;
20431;SDS011;10375;49.136;10.366;2023-08-06T01:35:12;66.60;;;63.25;;
20431;SDS011;10375;49.136;10.366;2023-08-06T01:37:42;72.00;;;68.25;;
20431;SDS011;10375;49.136;10.366;2023-08-06T01:40:10;70.43;;;66.75;;
20431;SDS011;10375;49.136;10.366;2023-08-06T01:42:38;64.07;;;60.67;;
20431;SDS011;10375;49.136;10.366;2023-08-06T01:45:06;65.28;;;61.75;;
20431;SDS011;10375;49.136;10.366;2023-08-06T01:47:34;61.97;;;58.33;;
20431;SDS011;10375;49.136;10.366;2023-08-06T01:50:02;48.47;;;45.88;;
20431;SDS011;10375;49.136;10.366;2023-08-06T01:52:29;50.53;;;47.83;;
20431;SDS011;10375;49.136;10.366;2023-08-06T01:54:56;47.35;;;44.95;;
20431;SDS011;10375;49.136;10.366;2023-08-06T01:57:23;43.67;;;40.60;;
20431;SDS011;10375;49.136;10.366;2023-08-06T01:59:50;41.15;;;39.03;;
20431;SDS011;10375;49.136;10.366;2023-08-06T02:02:17;45.03;;;42.03;;
20431;SDS011;10375;49.136;10.366;2023-08-06T02:04:45;47.20;;;44.10;;
20431;SDS011;10375;49.136;10.366;2023-08-06T02:07:12;45.13;;;42.63;;
20431;SDS011;10375;49.136;10.366;2023-08-06T02:09:39;46.28;;;43.45;;
20431;SDS011;10375;49.136;10.366;2023-08-06T02:12:06;45.75;;;43.35;;
20431;SDS011;10375;49.136;10.366;2023-08-06T02:14:33;41.35;;;38.95;;
20431;SDS011;10375;49.136;10.366;2023-08-06T02:17:01;48.65;;;46.05;;
20431;SDS011;10375;49.136;10.366;2023-08-06T02:19:28;43.95;;;41.55;;
20431;SDS011;10375;49.136;10.366;2023-08-06T02:21:55;43.25;;;40.65;;
20431;SDS011;10375;49.136;10.366;2023-08-06T02:24:23;39.33;;;37.00;;
20431;SDS011;10375;49.136;10.366;2023-08-06T02:26:50;43.97;;;41.58;;
20431;SDS011;10375;49.136;10.366;2023-08-06T02:29:18;49.50;;;46.63;;
20431;SDS011;10375;49.136;10.366;2023-08-06T02:31:45;50.60;;;47.80;;
20431;SDS011;10375;49.136;10.366;2023-08-06T02:34:12;47.70;;;45.20;;
20431;SDS011;10375;49.136;10.366;2023-08-06T02:36:39;45.08;;;42.65;;
20431;SDS011;10375;49.136;10.366;2023-08-06T02:39:06;47.17;;;44.60;;
20431;SDS011;10375;49.136;10.366;2023-08-06T02:41:33;50.63;;;47.78;;
20431;SDS011;10375;49.136;10.366;2023-08-06T02:44:01;48.72;;;46.15;;
20431;SDS011;10375;49.136;10.366;2023-08-06T02:46:29;50.83;;;47.95;;
20431;SDS011;10375;49.136;10.366;2023-08-06T02:48:56;51.50;;;48.83;;
20431;SDS011;10375;49.136;10.366;2023-08-06T02:51:23;51.92;;;49.10;;
20431;SDS011;10375;49.136;10.366;2023-08-06T02:53:50;46.58;;;44.00;;
20431;SDS011;10375;49.136;10.366;2023-08-06T02:56:17;45.65;;;43.05;;
20431;SDS011;10375;49.136;10.366;2023-08-06T02:58:44;46.60;;;44.00;;
20431;SDS011;10375;49.136;10.366;2023-08-06T03:01:11;47.30;;;44.75;;
20431;SDS011;10375;49.136;10.366;2023-08-06T03:03:38;41.28;;;38.88;;
20431;SDS011;10375;49.136;10.366;2023-08-06T03:06:05;50.08;;;47.33;;
20431;SDS011;10375;49.136;10.366;2023-08-06T03:08:32;49.10;;;45.80;;
20431;SDS011;10375;49.136;10.366;2023-08-06T03:11:00;45.33;;;42.92;;
20431;SDS011;10375;49.136;10.366;2023-08-06T03:13:27;49.22;;;45.47;;
20431;SDS011;10375;49.136;10.366;2023-08-06T03:15:55;46.40;;;44.00;;
20431;SDS011;10375;49.136;10.366;2023-08-06T03:18:23;46.67;;;43.33;;
20431;SDS011;10375;49.136;10.366;2023-08-06T03:20:52;49.95;;;47.22;;
20431;SDS011;10375;49.136;10.366;2023-08-06T03:23:20;45.42;;;42.97;;
20431;SDS011;10375;49.136;10.366;2023-08-06T03:25:47;45.63;;;43.17;;
20431;SDS011;10375;49.136;10.366;2023-08-06T03:28:14;53.55;;;50.60;;
20431;SDS011;10375;49.136;10.366;2023-08-06T03:30:41;53.88;;;50.83;;
20431;SDS011;10375;49.136;10.366;2023-08-06T03:33:08;50.90;;;48.20;;
20431;SDS011;10375;49.136;10.366;2023-08-06T03:35:36;56.38;;;53.38;;
20431;SDS011;10375;49.136;10.366;2023-08-06T03:38:03;36.25;;;34.33;;
20431;SDS011;10375;49.136;10.366;2023-08-06T03:40:30;38.40;;;36.25;;
20431;SDS011;10375;49.136;10.366;2023-08-06T03:42:57;37.05;;;35.05;;
20431;SDS011;10375;49.136;10.366;2023-08-06T03:45:24;36.25;;;34.20;;
20431;SDS011;10375;49.136;10.366;2023-08-06T03:47:51;51.13;;;48.22;;
20431;SDS011;10375;49.136;10.366;2023-08-06T03:50:18;53.72;;;50.70;;
20431;SDS011;10375;49.136;10.366;2023-08-06T03:52:45;55.63;;;52.63;;
20431;SDS011;10375;49.136;10.366;2023-08-06T03:55:12;50.45;;;47.78;;
20431;SDS011;10375;49.136;10.366;2023-08-06T03:57:39;52.78;;;49.88;;
20431;SDS011;10375;49.136;10.366;2023-08-06T04:00:07;48.05;;;45.35;;
20431;SDS011;10375;49.136;10.366;2023-08-06T04:02:34;50.80;;;47.88;;
20431;SDS011;10375;49.136;10.366;2023-08-06T04:05:01;51.30;;;48.03;;
20431;SDS011;10375;49.136;10.366;2023-08-06T04:07:29;54.08;;;50.70;;
20431;SDS011;10375;49.136;10.366;2023-08-06T04:09:59;58.28;;;55.10;;
20431;SDS011;10375;49.136;10.366;2023-08-06T04:12:27;51.95;;;46.50;;
20431;SDS011;10375;49.136;10.366;2023-08-06T04:14:55;55.63;;;52.50;;
20431;SDS011;10375;49.136;10.366;2023-08-06T04:17:24;50.22;;;46.78;;
20431;SDS011;10375;49.136;10.366;2023-08-06T04:19:51;55.53;;;52.40;;
20431;SDS011;10375;49.136;10.366;2023-08-06T04:22:20;52.42;;;49.28;;
20431;SDS011;10375;49.136;10.366;2023-08-06T04:24:48;57.53;;;54.35;;
20431;SDS011;10375;49.136;10.366;2023-08-06T04:27:15;61.50;;;57.80;;
20431;SDS011;10375;49.136;10.366;2023-08-06T04:29:44;66.07;;;62.10;;
20431;SDS011;10375;49.136;10.366;2023-08-06T04:32:11;65.95;;;61.92;;
20431;SDS011;10375;49.136;10.366;2023-08-06T04:34:39;66.38;;;62.55;;
20431;SDS011;10375;49.136;10.366;2023-08-06T04:37:06;62.92;;;59.22;;
20431;SDS011;10375;49.136;10.366;2023-08-06T04:39:33;65.90;;;62.28;;
20431;SDS011;10375;49.136;10.366;2023-08-06T04:42:00;63.40;;;59.80;;
20431;SDS011;10375;49.136;10.366;2023-08-06T04:44:28;55.03;;;51.00;;
20431;SDS011;10375;49.136;10.366;2023-08-06T04:46:55;54.42;;;51.42;;
20431;SDS011;10375;49.136;10.366;2023-08-06T04:49:22;54.85;;;51.90;;
20431;SDS011;10375;49.136;10.366;2023-08-06T04:51:49;41.30;;;39.00;;
20431;SDS011;10375;49.136;10.366;2023-08-06T04:54:17;46.88;;;44.30;;
20431;SDS011;10375;49.136;10.366;2023-08-06T04:56:44;43.70;;;41.03;;
20431;SDS011;10375;49.136;10.366;2023-08-06T04:59:11;48.88;;;46.10;;
20431;SDS011;10375;49.136;10.366;2023-08-06T05:01:38;45.63;;;43.30;;
20431;SDS011;10375;49.136;10.366;2023-08-06T05:04:05;50.10;;;46.92;;
20431;SDS011;10375;49.136;10.366;2023-08-06T05:06:33;42.63;;;40.33;;
20431;SDS011;10375;49.136;10.366;2023-08-06T05:09:00;34.30;;;32.17;;
20431;SDS011;10375;49.136;10.366;2023-08-06T05:11:27;35.58;;;33.80;;
20431;SDS011;10375;49.136;10.366;2023-08-06T05:13:54;37.88;;;35.78;;
20431;SDS011;10375;49.136;10.366;2023-08-06T05:16:21;40.17;;;38.17;;
20431;SDS011;10375;49.136;10.366;2023-08-06T05:18:48;38.03;;;36.13;;
20431;SDS011;10375;49.136;10.366;2023-08-06T05:21:15;38.35;;;36.45;;
20431;SDS011;10375;49.136;10.366;2023-08-06T05:23:43;33.47;;;31.60;;
20431;SDS011;10375;49.136;10.366;2023-08-06T05:26:10;38.50;;;36.50;;
20431;SDS011;10375;49.136;10.366;2023-08-06T05:28:37;36.95;;;34.95;;
20431;SDS011;10375;49.136;10.366;2023-08-06T05:31:04;40.28;;;38.28;;
20431;SDS011;10375;49.136;10.366;2023-08-06T05:33:31;36.00;;;34.20;;
20431;SDS011;10375;49.136;10.366;2023-08-06T05:35:58;31.88;;;30.27;;
20431;SDS011;10375;49.136;10.366;2023-08-06T05:38:26;43.72;;;41.20;;
20431;SDS011;10375;49.136;10.366;2023-08-06T05:40:53;37.72;;;35.83;;
20431;SDS011;10375;49.136;10.366;2023-08-06T05:43:21;40.85;;;38.85;;
20431;SDS011;10375;49.136;10.366;2023-08-06T05:45:49;30.45;;;28.95;;
20431;SDS011;10375;49.136;10.366;2023-08-06T05:48:17;30.45;;;28.90;;
20431;SDS011;10375;49.136;10.366;2023-08-06T05:50:44;32.55;;;30.75;;
20431;SDS011;10375;49.136;10.366;2023-08-06T05:53:11;35.13;;;33.10;;
20431;SDS011;10375;49.136;10.366;2023-08-06T05:55:38;37.70;;;35.45;;
20431;SDS011;10375;49.136;10.366;2023-08-06T05:58:05;40.90;;;38.80;;
20431;SDS011;10375;49.136;10.366;2023-08-06T06:00:32;37.25;;;35.40;;
20431;SDS011;10375;49.136;10.366;2023-08-06T06:03:01;36.63;;;34.65;;
20431;SDS011;10375;49.136;10.366;2023-08-06T06:05:28;36.17;;;34.22;;
20431;SDS011;10375;49.136;10.366;2023-08-06T06:07:56;35.75;;;33.95;;
20431;SDS011;10375;49.136;10.366;2023-08-06T06:10:23;38.80;;;36.85;;
20431;SDS011;10375;49.136;10.366;2023-08-06T06:12:50;36.90;;;34.97;;
20431;SDS011;10375;49.136;10.366;2023-08-06T06:15:17;43.05;;;40.85;;
20431;SDS011;10375;49.136;10.366;2023-08-06T06:17:44;42.55;;;40.38;;
20431;SDS011;10375;49.136;10.366;2023-08-06T06:20:12;45.10;;;42.58;;
20431;SDS011;10375;49.136;10.366;2023-08-06T06:22:39;41.35;;;39.15;;
20431;SDS011;10375;49.136;10.366;2023-08-06T06:25:06;47.33;;;44.83;;
20431;SDS011;10375;49.136;10.366;2023-08-06T06:27:34;45.25;;;42.47;;
20431;SDS011;10375;49.136;10.366;2023-08-06T06:30:01;46.75;;;44.35;;
20431;SDS011;10375;49.136;10.366;2023-08-06T06:32:28;42.38;;;40.15;;
20431;SDS011;10375;49.136;10.366;2023-08-06T06:34:55;43.70;;;41.30;;
20431;SDS011;10375;49.136;10.366;2023-08-06T06:37:22;40.15;;;38.10;;
20431;SDS011;10375;49.136;10.366;2023-08-06T06:39:50;46.92;;;44.28;;
20431;SDS011;10375;49.136;10.366;2023-08-06T06:42:17;44.80;;;42.50;;
20431;SDS011;10375;49.136;10.366;2023-08-06T06:44:44;40.63;;;38.58;;
20431;SDS011;10375;49.136;10.366;2023-08-06T06:47:11;39.05;;;36.83;;
20431;SDS011;10375;49.136;10.366;2023-08-06T06:49:39;46.67;;;43.92;;
20431;SDS011;10375;49.136;10.366;2023-08-06T06:52:06;48.45;;;45.95;;
20431;SDS011;10375;49.136;10.366;2023-08-06T06:54:34;44.97;;;42.58;;
20431;SDS011;10375;49.136;10.366;2023-08-06T06:57:01;44.15;;;41.95;;
20431;SDS011;10375;49.136;10.366;2023-08-06T06:59:28;40.70;;;38.60;;
20431;SDS011;10375;49.136;10.366;2023-08-06T07:01:55;40.80;;;38.60;;
20431;SDS011;10375;49.136;10.366;2023-08-06T07:04:22;42.17;;;39.97;;
20431;SDS011;10375;49.136;10.366;2023-08-06T07:06:49;40.10;;;38.10;;
20431;SDS011;10375;49.136;10.366;2023-08-06T07:09:18;48.15;;;45.65;;
20431;SDS011;10375;49.136;10.366;2023-08-06T07:11:45;37.05;;;34.97;;
20431;SDS011;10375;49.136;10.366;2023-08-06T07:14:12;38.20;;;36.20;;
20431;SDS011;10375;49.136;10.366;2023-08-06T07:16:41;44.05;;;41.85;;
20431;SDS011;10375;49.136;10.366;2023-08-06T07:19:08;53.53;;;50.72;;
20431;SDS011;10375;49.136;10.366;2023-08-06T07:21:35;59.60;;;56.38;;
20431;SDS011;10375;49.136;10.366;2023-08-06T07:24:02;59.17;;;54.40;;
20431;SDS011;10375;49.136;10.366;2023-08-06T07:26:29;57.90;;;54.80;;
20431;SDS011;10375;49.136;10.366;2023-08-06T07:28:56;50.90;;;48.28;;
20431;SDS011;10375;49.136;10.366;2023-08-06T07:31:23;56.67;;;53.67;;
20431;SDS011;10375;49.136;10.366;2023-08-06T07:33:50;61.88;;;58.60;;
20431;SDS011;10375;49.136;10.366;2023-08-06T07:36:18;59.70;;;56.17;;
20431;SDS011;10375;49.136;10.366;2023-08-06T07:38:45;59.72;;;56.53;;
20431;SDS011;10375;49.136;10.366;2023-08-06T07:41:12;57.42;;;54.17;;
20431;SDS011;10375;49.136;10.366;2023-08-06T07:43:39;59.63;;;56.42;;
20431;SDS011;10375;49.136;10.366;2023-08-06T07:46:06;60.08;;;55.53;;
20431;SDS011;10375;49.136;10.366;2023-08-06T07:48:33;58.97;;;55.83;;
20431;SDS011;10375;49.136;10.366;2023-08-06T07:51:01;55.80;;;52.92;;
20431;SDS011;10375;49.136;10.366;2023-08-06T07:53:28;56.08;;;53.05;;
20431;SDS011;10375;49.136;10.366;2023-08-06T07:55:57;57.30;;;53.60;;
20431;SDS011;10375;49.136;10.366;2023-08-06T07:58:25;57.90;;;54.80;;
20431;SDS011;10375;49.136;10.366;2023-08-06T08:00:53;54.40;;;51.10;;
20431;SDS011;10375;49.136;10.366;2023-08-06T08:03:20;50.00;;;46.10;;
20431;SDS011;10375;49.136;10.366;2023-08-06T08:05:47;49.53;;;46.88;;
20431;SDS011;10375;49.136;10.366;2023-08-06T08:08:15;58.50;;;55.08;;
20431;SDS011;10375;49.136;10.366;2023-08-06T08:10:42;57.53;;;54.45;;
20431;SDS011;10375;49.136;10.366;2023-08-06T08:13:09;54.58;;;51.67;;
20431;SDS011;10375;49.136;10.366;2023-08-06T08:15:36;46.20;;;43.70;;
20431;SDS011;10375;49.136;10.366;2023-08-06T08:18:03;45.10;;;42.80;;
20431;SDS011;10375;49.136;10.366;2023-08-06T08:20:30;39.10;;;37.08;;
20431;SDS011;10375;49.136;10.366;2023-08-06T08:22:59;57.80;;;52.40;;
20431;SDS011;10375;49.136;10.366;2023-08-06T08:25:27;53.63;;;50.70;;
20431;SDS011;10375;49.136;10.366;2023-08-06T08:27:57;49.47;;;46.35;;
20431;SDS011;10375;49.136;10.366;2023-08-06T08:30:24;50.00;;;47.45;;
20431;SDS011;10375;49.136;10.366;2023-08-06T08:32:52;50.95;;;48.38;;
20431;SDS011;10375;49.136;10.366;2023-08-06T08:35:19;44.40;;;42.15;;
20431;SDS011;10375;49.136;10.366;2023-08-06T08:37:46;51.65;;;48.80;;
20431;SDS011;10375;49.136;10.366;2023-08-06T08:40:14;47.50;;;45.10;;
20431;SDS011;10375;49.136;10.366;2023-08-06T08:42:42;44.78;;;42.53;;
20431;SDS011;10375;49.136;10.366;2023-08-06T08:45:11;47.85;;;45.40;;
20431;SDS011;10375;49.136;10.366;2023-08-06T08:47:42;50.55;;;47.95;;
20431;SDS011;10375;49.136;10.366;2023-08-06T08:50:10;51.20;;;48.58;;
20431;SDS011;10375;49.136;10.366;2023-08-06T08:52:41;46.08;;;43.70;;
20431;SDS011;10375;49.136;10.366;2023-08-06T08:55:12;45.45;;;43.20;;
20431;SDS011;10375;49.136;10.366;2023-08-06T08:57:47;47.35;;;45.00;;
20431;SDS011;10375;49.136;10.366;2023-08-06T09:00:14;43.03;;;40.80;;
20431;SDS011;10375;49.136;10.366;2023-08-06T09:02:42;43.38;;;41.17;;
20431;SDS011;10375;49.136;10.366;2023-08-06T09:05:11;39.13;;;37.13;;
20431;SDS011;10375;49.136;10.366;2023-08-06T09:07:41;40.40;;;38.33;;
20431;SDS011;10375;49.136;10.366;2023-08-06T09:10:12;48.08;;;45.65;;
20431;SDS011;10375;49.136;10.366;2023-08-06T09:12:44;35.55;;;33.80;;
20431;SDS011;10375;49.136;10.366;2023-08-06T09:15:15;42.78;;;40.60;;
20431;SDS011;10375;49.136;10.366;2023-08-06T09:17:42;44.85;;;42.58;;
20431;SDS011;10375;49.136;10.366;2023-08-06T09:20:12;48.63;;;46.00;;
20431;SDS011;10375;49.136;10.366;2023-08-06T09:22:41;47.47;;;45.05;;
20431;SDS011;10375;49.136;10.366;2023-08-06T09:25:08;50.28;;;47.70;;
20431;SDS011;10375;49.136;10.366;2023-08-06T09:27:36;50.45;;;47.83;;
20431;SDS011;10375;49.136;10.366;2023-08-06T09:30:05;40.13;;;38.13;;
20431;SDS011;10375;49.136;10.366;2023-08-06T09:32:46;42.25;;;40.13;;
20431;SDS011;10375;49.136;10.366;2023-08-06T09:35:17;46.88;;;44.50;;
20431;SDS011;10375;49.136;10.366;2023-08-06T09:37:45;46.05;;;43.70;;
20431;SDS011;10375;49.136;10.366;2023-08-06T09:40:30;40.33;;;38.33;;
20431;SDS011;10375;49.136;10.366;2023-08-06T09:42:58;45.03;;;42.72;;
20431;SDS011;10375;49.136;10.366;2023-08-06T09:45:34;39.30;;;37.30;;
20431;SDS011;10375;49.136;10.366;2023-08-06T09:48:05;69.78;;;42.95;;
20431;SDS011;10375;49.136;10.366;2023-08-06T09:50:35;40.33;;;38.30;;
20431;SDS011;10375;49.136;10.366;2023-08-06T09:53:04;47.47;;;45.00;;
20431;SDS011;10375;49.136;10.366;2023-08-06T09:55:33;40.75;;;38.58;;
20431;SDS011;10375;49.136;10.366;2023-08-06T09:58:01;33.38;;;31.77;;
20431;SDS011;10375;49.136;10.366;2023-08-06T10:00:29;27.38;;;25.98;;
20431;SDS011;10375;49.136;10.366;2023-08-06T10:03:00;33.13;;;31.48;;
20431;SDS011;10375;49.136;10.366;2023-08-06T10:05:28;31.73;;;30.17;;
20431;SDS011;10375;49.136;10.366;2023-08-06T10:07:57;29.88;;;27.08;;
20431;SDS011;10375;49.136;10.366;2023-08-06T10:10:27;32.20;;;30.25;;
20431;SDS011;10375;49.136;10.366;2023-08-06T10:12:56;29.98;;;28.25;;
20431;SDS011;10375;49.136;10.366;2023-08-06T10:15:25;27.13;;;25.63;;
20431;SDS011;10375;49.136;10.366;2023-08-06T10:17:54;29.10;;;26.88;;
20431;SDS011;10375;49.136;10.366;2023-08-06T10:20:24;28.63;;;27.23;;
20431;SDS011;10375;49.136;10.366;2023-08-06T10:23:04;25.20;;;22.67;;
20431;SDS011;10375;49.136;10.366;2023-08-06T10:25:34;24.73;;;23.52;;
20431;SDS011;10375;49.136;10.366;2023-08-06T10:28:07;31.33;;;29.80;;
20431;SDS011;10375;49.136;10.366;2023-08-06T10:30:46;24.13;;;22.95;;
20431;SDS011;10375;49.136;10.366;2023-08-06T10:33:14;34.17;;;32.42;;
20431;SDS011;10375;49.136;10.366;2023-08-06T10:35:43;28.52;;;27.13;;
20431;SDS011;10375;49.136;10.366;2023-08-06T10:38:15;23.42;;;22.25;;
20431;SDS011;10375;49.136;10.366;2023-08-06T10:41:01;17.17;;;16.30;;
20431;SDS011;10375;49.136;10.366;2023-08-06T10:43:30;16.48;;;15.68;;
20431;SDS011;10375;49.136;10.366;2023-08-06T10:46:09;14.75;;;14.05;;
20431;SDS011;10375;49.136;10.366;2023-08-06T10:48:38;12.98;;;12.27;;
20431;SDS011;10375;49.136;10.366;2023-08-06T10:51:10;13.15;;;12.55;;
20431;SDS011;10375;49.136;10.366;2023-08-06T10:53:43;19.27;;;18.27;;
20431;SDS011;10375;49.136;10.366;2023-08-06T10:56:15;23.60;;;22.50;;
20431;SDS011;10375;49.136;10.366;2023-08-06T10:58:43;24.88;;;23.67;;
20431;SDS011;10375;49.136;10.366;2023-08-06T11:01:11;22.92;;;21.83;;
20431;SDS011;10375;49.136;10.366;2023-08-06T11:03:39;26.90;;;25.50;;
20431;SDS011;10375;49.136;10.366;2023-08-06T11:06:07;27.95;;;26.55;;
20431;SDS011;10375;49.136;10.366;2023-08-06T11:08:38;32.45;;;30.85;;
20431;SDS011;10375;49.136;10.366;2023-08-06T11:11:13;30.02;;;28.52;;
20431;SDS011;10375;49.136;10.366;2023-08-06T11:13:42;32.92;;;31.23;;
20431;SDS011;10375;49.136;10.366;2023-08-06T11:16:16;31.65;;;30.05;;
20431;SDS011;10375;49.136;10.366;2023-08-06T11:18:45;33.13;;;31.50;;
20431;SDS011;10375;49.136;10.366;2023-08-06T11:21:14;24.25;;;22.95;;
20431;SDS011;10375;49.136;10.366;2023-08-06T11:23:41;26.55;;;25.23;;
20431;SDS011;10375;49.136;10.366;2023-08-06T11:26:08;29.38;;;27.98;;
20431;SDS011;10375;49.136;10.366;2023-08-06T11:28:35;33.17;;;31.48;;
20431;SDS011;10375;49.136;10.366;2023-08-06T11:31:02;38.28;;;36.08;;
20431;SDS011;10375;49.136;10.366;2023-08-06T11:33:30;34.92;;;33.13;;
20431;SDS011;10375;49.136;10.366;2023-08-06T11:35:58;31.80;;;30.20;;
20431;SDS011;10375;49.136;10.366;2023-08-06T11:38:29;34.05;;;32.33;;
20431;SDS011;10375;49.136;10.366;2023-08-06T11:40:56;37.60;;;35.72;;
20431;SDS011;10375;49.136;10.366;2023-08-06T11:43:24;33.30;;;31.70;;
20431;SDS011;10375;49.136;10.366;2023-08-06T11:45:51;32.85;;;31.25;;
20431;SDS011;10375;49.136;10.366;2023-08-06T11:48:20;39.88;;;37.90;;
20431;SDS011;10375;49.136;10.366;2023-08-06T11:50:47;40.53;;;38.53;;
20431;SDS011;10375;49.136;10.366;2023-08-06T11:53:14;42.60;;;40.45;;
20431;SDS011;10375;49.136;10.366;2023-08-06T11:55:42;43.53;;;41.33;;
20431;SDS011;10375;49.136;10.366;2023-08-06T11:58:10;38.63;;;36.67;;
20431;SDS011;10375;49.136;10.366;2023-08-06T12:00:39;41.33;;;39.22;;
20431;SDS011;10375;49.136;10.366;2023-08-06T12:03:06;34.65;;;32.95;;
20431;SDS011;10375;49.136;10.366;2023-08-06T12:05:33;28.58;;;27.13;;
20431;SDS011;10375;49.136;10.366;2023-08-06T12:08:01;37.72;;;35.83;;
20431;SDS011;10375;49.136;10.366;2023-08-06T12:10:30;41.33;;;39.22;;
20431;SDS011;10375;49.136;10.366;2023-08-06T12:12:58;41.53;;;39.45;;
20431;SDS011;10375;49.136;10.366;2023-08-06T12:15:25;35.97;;;34.17;;
20431;SDS011;10375;49.136;10.366;2023-08-06T12:17:52;38.72;;;36.80;;
20431;SDS011;10375;49.136;10.366;2023-08-06T12:20:19;38.58;;;36.67;;
20431;SDS011;10375;49.136;10.366;2023-08-06T12:22:47;34.33;;;32.58;;
20431;SDS011;10375;49.136;10.366;2023-08-06T12:25:14;33.80;;;32.15;;
20431;SDS011;10375;49.136;10.366;2023-08-06T12:27:42;33.83;;;32.15;;
20431;SDS011;10375;49.136;10.366;2023-08-06T12:30:11;30.35;;;28.80;;
20431;SDS011;10375;49.136;10.366;2023-08-06T12:32:39;33.78;;;32.08;;
20431;SDS011;10375;49.136;10.366;2023-08-06T12:35:07;29.85;;;28.42;;
20431;SDS011;10375;49.136;10.366;2023-08-06T12:37:35;32.05;;;30.40;;
20431;SDS011;10375;49.136;10.366;2023-08-06T12:40:05;31.73;;;30.17;;
20431;SDS011;10375;49.136;10.366;2023-08-06T12:42:53;32.47;;;30.88;;
20431;SDS011;10375;49.136;10.366;2023-08-06T12:45:20;30.20;;;28.65;;
20431;SDS011;10375;49.136;10.366;2023-08-06T12:47:48;33.97;;;32.30;;
20431;SDS011;10375;49.136;10.366;2023-08-06T12:50:16;39.20;;;37.25;;
20431;SDS011;10375;49.136;10.366;2023-08-06T12:52:44;35.35;;;33.58;;
20431;SDS011;10375;49.136;10.366;2023-08-06T12:55:12;38.45;;;36.55;;
20431;SDS011;10375;49.136;10.366;2023-08-06T12:57:39;32.72;;;31.10;;
20431;SDS011;10375;49.136;10.366;2023-08-06T13:00:21;32.33;;;30.73;;
20431;SDS011;10375;49.136;10.366;2023-08-06T13:02:48;31.67;;;30.17;;
20431;SDS011;10375;49.136;10.366;2023-08-06T13:05:15;35.05;;;33.35;;
20431;SDS011;10375;49.136;10.366;2023-08-06T13:07:42;31.35;;;29.52;;
20431;SDS011;10375;49.136;10.366;2023-08-06T13:10:09;35.10;;;33.20;;
20431;SDS011;10375;49.136;10.366;2023-08-06T13:12:36;34.72;;;33.03;;
20431;SDS011;10375;49.136;10.366;2023-08-06T13:15:04;35.25;;;33.55;;
20431;SDS011;10375;49.136;10.366;2023-08-06T13:17:31;36.40;;;34.60;;
20431;SDS011;10375;49.136;10.366;2023-08-06T13:19:58;35.00;;;33.30;;
20431;SDS011;10375;49.136;10.366;2023-08-06T13:22:25;36.58;;;34.78;;
20431;SDS011;10375;49.136;10.366;2023-08-06T13:24:53;31.58;;;30.02;;
20431;SDS011;10375;49.136;10.366;2023-08-06T13:27:20;28.35;;;26.80;;
20431;SDS011;10375;49.136;10.366;2023-08-06T13:29:47;33.55;;;31.88;;
20431;SDS011;10375;49.136;10.366;2023-08-06T13:32:14;32.75;;;31.10;;
20431;SDS011;10375;49.136;10.366;2023-08-06T13:34:41;35.03;;;33.30;;
20431;SDS011;10375;49.136;10.366;2023-08-06T13:37:08;33.38;;;31.70;;
20431;SDS011;10375;49.136;10.366;2023-08-06T13:39:35;36.13;;;34.33;;
20431;SDS011;10375;49.136;10.366;2023-08-06T13:42:02;33.45;;;31.58;;
20431;SDS011;10375;49.136;10.366;2023-08-06T13:44:30;35.35;;;33.53;;
20431;SDS011;10375;49.136;10.366;2023-08-06T13:47:02;33.70;;;32.08;;
20431;SDS011;10375;49.136;10.366;2023-08-06T13:49:29;33.95;;;32.05;;
20431;SDS011;10375;49.136;10.366;2023-08-06T13:51:56;37.83;;;35.92;;
20431;SDS011;10375;49.136;10.366;2023-08-06T13:54:41;34.05;;;32.33;;
20431;SDS011;10375;49.136;10.366;2023-08-06T13:57:08;40.55;;;37.72;;
20431;SDS011;10375;49.136;10.366;2023-08-06T13:59:35;57.63;;;31.23;;
20431;SDS011;10375;49.136;10.366;2023-08-06T14:02:03;37.95;;;35.30;;
20431;SDS011;10375;49.136;10.366;2023-08-06T14:04:30;37.40;;;35.03;;
20431;SDS011;10375;49.136;10.366;2023-08-06T14:06:57;38.85;;;36.28;;
20431;SDS011;10375;49.136;10.366;2023-08-06T14:09:24;42.80;;;39.72;;
20431;SDS011;10375;49.136;10.366;2023-08-06T14:11:52;37.42;;;35.17;;
20431;SDS011;10375;49.136;10.366;2023-08-06T14:14:20;42.75;;;40.55;;
20431;SDS011;10375;49.136;10.366;2023-08-06T14:16:52;41.20;;;39.03;;
20431;SDS011;10375;49.136;10.366;2023-08-06T14:19:21;38.33;;;36.13;;